createdAt,value
2022-11-30T00:00:41.053Z,1.58
2022-11-30T00:03:08.207Z,1.52
2022-11-30T00:05:35.510Z,1.37
2022-11-30T00:08:01.920Z,1.43
2022-11-30T00:10:28.347Z,1.35
2022-11-30T00:12:54.740Z,1.44
2022-11-30T00:15:21.149Z,1.75
2022-11-30T00:17:47.710Z,1.47
2022-11-30T00:20:14.043Z,1.44
2022-11-30T00:22:40.411Z,1.28
2022-11-30T00:25:06.751Z,1.39
2022-11-30T00:27:33.142Z,1.47
2022-11-30T00:29:59.518Z,1.46
2022-11-30T00:32:25.875Z,1.82
2022-11-30T00:34:52.438Z,1.86
2022-11-30T00:37:18.806Z,1.72
2022-11-30T00:39:45.228Z,1.80
2022-11-30T00:42:11.632Z,1.76
2022-11-30T00:44:38.113Z,1.91
2022-11-30T00:47:04.441Z,1.84
2022-11-30T00:49:30.937Z,2.12
2022-11-30T00:51:57.336Z,1.97
2022-11-30T00:54:23.836Z,1.89
2022-11-30T00:56:50.267Z,1.90
2022-11-30T00:59:16.721Z,2.01
2022-11-30T01:01:43.260Z,1.94
2022-11-30T01:04:09.649Z,1.89
2022-11-30T01:06:36.027Z,2.46
2022-11-30T01:09:02.517Z,2.18
2022-11-30T01:11:28.873Z,1.86
2022-11-30T01:13:55.301Z,2.37
2022-11-30T01:16:21.703Z,2.11
2022-11-30T01:18:48.144Z,2.32
2022-11-30T01:21:14.525Z,2.70
2022-11-30T01:23:40.906Z,2.64
2022-11-30T01:26:07.247Z,2.54
2022-11-30T01:28:33.620Z,2.30
2022-11-30T01:31:00.085Z,2.26
2022-11-30T01:33:26.543Z,2.26
2022-11-30T01:35:52.870Z,2.28
2022-11-30T01:38:19.367Z,1.99
2022-11-30T01:40:49.132Z,2.12
2022-11-30T01:43:19.493Z,2.55
2022-11-30T01:45:45.927Z,2.41
2022-11-30T01:48:12.331Z,2.59
2022-11-30T01:50:38.729Z,2.24
2022-11-30T01:53:05.120Z,2.70
2022-11-30T01:55:31.502Z,2.56
2022-11-30T01:57:57.997Z,2.22
2022-11-30T02:00:24.343Z,2.33
2022-11-30T02:02:50.766Z,2.44
2022-11-30T02:05:17.266Z,2.02
2022-11-30T02:07:43.786Z,1.90
2022-11-30T02:10:10.210Z,1.73
2022-11-30T02:12:36.539Z,2.32
2022-11-30T02:15:02.927Z,2.24
2022-11-30T02:17:29.497Z,2.38
2022-11-30T02:19:55.810Z,2.76
2022-11-30T02:22:22.230Z,2.19
2022-11-30T02:24:48.922Z,1.91
2022-11-30T02:27:15.494Z,1.99
2022-11-30T02:29:42.087Z,2.09
2022-11-30T02:32:08.472Z,1.88
2022-11-30T02:34:34.852Z,1.81
2022-11-30T02:37:01.338Z,2.26
2022-11-30T02:39:29.661Z,2.31
2022-11-30T02:41:56.100Z,2.25
2022-11-30T02:44:22.559Z,1.97
2022-11-30T02:46:48.962Z,2.00
2022-11-30T02:49:15.554Z,2.23
2022-11-30T02:51:41.969Z,2.10
2022-11-30T02:54:08.501Z,2.14
2022-11-30T02:56:37.814Z,2.28
2022-11-30T02:59:04.144Z,2.17
2022-11-30T03:01:30.575Z,2.27
2022-11-30T03:03:56.930Z,2.19
2022-11-30T03:06:23.380Z,2.37
2022-11-30T03:08:49.781Z,2.05
2022-11-30T03:11:16.244Z,1.94
2022-11-30T03:16:23.058Z,2.02
2022-11-30T03:18:49.542Z,2.62
2022-11-30T03:21:16.085Z,2.56
2022-11-30T03:23:42.407Z,2.25
2022-11-30T03:26:09.868Z,2.15
2022-11-30T03:28:36.258Z,1.70
2022-11-30T03:31:02.652Z,2.00
2022-11-30T03:33:29.140Z,1.78
2022-11-30T03:35:55.502Z,1.90
2022-11-30T03:38:21.843Z,1.66
2022-11-30T03:40:48.215Z,1.88
2022-11-30T03:43:14.593Z,1.78
2022-11-30T03:45:40.938Z,1.79
2022-11-30T03:48:07.253Z,2.06
2022-11-30T03:50:33.568Z,2.07
2022-11-30T03:52:59.887Z,1.95
2022-11-30T03:55:26.234Z,2.09
2022-11-30T03:57:52.634Z,2.19
2022-11-30T04:00:18.981Z,2.22
2022-11-30T04:02:45.437Z,2.70
2022-11-30T04:05:11.862Z,2.55
2022-11-30T04:07:38.698Z,2.07
2022-11-30T04:10:08.443Z,2.60
2022-11-30T04:12:35.228Z,2.52
2022-11-30T04:15:01.681Z,2.50
2022-11-30T04:17:28.255Z,2.67
2022-11-30T04:19:54.633Z,3.23
2022-11-30T04:22:20.979Z,3.59
2022-11-30T04:24:47.590Z,3.02
2022-11-30T04:27:14.125Z,2.99
2022-11-30T04:29:40.538Z,3.10
2022-11-30T04:32:06.936Z,3.89
2022-11-30T04:34:33.269Z,4.40
2022-11-30T04:37:00.565Z,3.64
2022-11-30T04:39:27.116Z,2.64
2022-11-30T04:41:53.452Z,2.51
2022-11-30T04:44:22.611Z,2.83
2022-11-30T04:46:48.967Z,2.78
2022-11-30T04:49:15.345Z,2.75
2022-11-30T04:51:41.677Z,2.45
2022-11-30T04:54:08.019Z,5.82
2022-11-30T04:56:34.504Z,10.41
2022-11-30T04:59:01.033Z,4.48
2022-11-30T05:01:27.457Z,3.39
2022-11-30T05:03:54.110Z,3.11
2022-11-30T05:06:20.537Z,2.95
2022-11-30T05:08:46.893Z,2.83
2022-11-30T05:11:13.228Z,2.66
2022-11-30T05:13:39.575Z,2.59
2022-11-30T05:16:05.976Z,2.73
2022-11-30T05:18:32.342Z,3.13
2022-11-30T05:20:58.789Z,3.12
2022-11-30T05:23:28.418Z,3.10
2022-11-30T05:25:54.809Z,3.09
2022-11-30T05:28:21.249Z,2.97
2022-11-30T05:30:47.611Z,3.56
2022-11-30T05:33:14.039Z,2.81
2022-11-30T05:35:40.433Z,2.73
2022-11-30T05:38:06.990Z,2.70
2022-11-30T05:40:33.411Z,2.80
2022-11-30T05:42:59.808Z,2.90
2022-11-30T05:45:26.400Z,3.20
2022-11-30T05:47:52.924Z,2.81
2022-11-30T05:50:19.295Z,2.52
2022-11-30T05:52:45.740Z,2.48
2022-11-30T05:55:12.137Z,3.09
2022-11-30T05:57:38.737Z,2.97
2022-11-30T06:00:05.247Z,2.90
2022-11-30T06:02:31.757Z,2.56
2022-11-30T06:04:58.228Z,2.67
2022-11-30T06:07:24.663Z,2.45
2022-11-30T06:09:51.093Z,2.46
2022-11-30T06:12:17.449Z,3.16
2022-11-30T06:14:43.979Z,3.12
2022-11-30T06:17:10.452Z,2.42
2022-11-30T06:19:36.862Z,2.26
2022-11-30T06:22:03.320Z,2.56
2022-11-30T06:24:29.636Z,2.77
2022-11-30T06:26:55.984Z,2.51
2022-11-30T06:29:22.315Z,2.72
2022-11-30T06:31:48.743Z,2.63
2022-11-30T06:34:15.178Z,2.68
2022-11-30T06:36:41.486Z,2.69
2022-11-30T06:39:07.818Z,2.85
2022-11-30T06:41:34.153Z,3.10
2022-11-30T06:44:00.483Z,2.79
2022-11-30T06:46:26.817Z,2.61
2022-11-30T06:48:53.189Z,2.53
2022-11-30T06:51:19.584Z,2.36
2022-11-30T06:53:45.928Z,3.84
2022-11-30T06:56:12.247Z,3.52
2022-11-30T06:58:38.639Z,2.97
2022-11-30T07:01:05.076Z,2.90
2022-11-30T07:03:31.431Z,2.83
2022-11-30T07:05:57.775Z,2.72
2022-11-30T07:08:24.155Z,2.73
2022-11-30T07:10:50.542Z,2.87
2022-11-30T07:13:16.895Z,3.10
2022-11-30T07:15:43.254Z,3.21
2022-11-30T07:18:09.606Z,3.04
2022-11-30T07:20:35.951Z,3.09
2022-11-30T07:31:28.393Z,3.37
2022-11-30T07:33:54.866Z,3.31
2022-11-30T07:36:21.298Z,3.17
2022-11-30T07:38:47.763Z,3.37
2022-11-30T07:41:26.008Z,3.39
2022-11-30T07:43:52.447Z,2.91
2022-11-30T07:46:18.898Z,2.78
2022-11-30T07:48:45.340Z,2.75
2022-11-30T07:51:11.792Z,3.20
2022-11-30T07:53:38.199Z,3.30
2022-11-30T07:56:04.597Z,2.97
2022-11-30T07:58:33.272Z,3.17
2022-11-30T08:00:59.772Z,2.91
2022-11-30T08:03:26.288Z,3.19
2022-11-30T08:05:52.705Z,3.36
2022-11-30T08:08:19.144Z,3.09
2022-11-30T08:10:46.594Z,3.31
2022-11-30T08:13:13.004Z,3.44
2022-11-30T08:15:39.403Z,4.27
2022-11-30T08:18:05.846Z,6.30
2022-11-30T08:20:32.308Z,4.03
2022-11-30T08:23:00.082Z,3.08
2022-11-30T08:25:26.511Z,2.72
2022-11-30T08:27:52.957Z,2.98
2022-11-30T08:30:19.417Z,3.08
2022-11-30T08:32:45.840Z,2.87
2022-11-30T08:35:12.345Z,3.09
2022-11-30T08:37:38.843Z,3.38
2022-11-30T08:40:05.243Z,3.19
2022-11-30T08:42:31.765Z,3.32
2022-11-30T08:44:58.412Z,3.26
2022-11-30T08:47:25.247Z,3.29
2022-11-30T08:49:51.926Z,2.89
2022-11-30T08:52:18.973Z,2.54
2022-11-30T08:54:53.267Z,2.48
2022-11-30T08:57:20.745Z,2.65
2022-11-30T09:02:33.614Z,5.04
2022-11-30T09:05:00.187Z,5.39
2022-11-30T09:07:26.681Z,4.04
2022-11-30T09:09:53.172Z,3.92
2022-11-30T09:12:19.591Z,3.50
2022-11-30T09:14:49.650Z,3.09
2022-11-30T09:17:19.044Z,3.20
2022-11-30T09:19:47.662Z,3.28
2022-11-30T09:22:14.114Z,3.37
2022-11-30T09:24:42.587Z,3.42
2022-11-30T09:27:08.993Z,3.29
2022-11-30T09:29:35.442Z,3.75
2022-11-30T09:32:01.839Z,3.52
2022-11-30T09:34:28.252Z,3.69
2022-11-30T09:36:54.631Z,4.18
2022-11-30T09:39:21.075Z,5.00
2022-11-30T09:41:47.507Z,4.95
2022-11-30T09:44:13.958Z,4.83
2022-11-30T09:46:40.485Z,5.03
2022-11-30T09:49:06.934Z,5.17
2022-11-30T09:51:33.345Z,5.49
2022-11-30T09:53:59.780Z,5.32
2022-11-30T09:56:27.213Z,4.95
2022-11-30T09:58:53.589Z,4.89
2022-11-30T10:01:20.034Z,4.81
2022-11-30T10:03:46.559Z,5.37
2022-11-30T10:06:12.963Z,5.62
2022-11-30T10:08:39.354Z,5.41
2022-11-30T10:11:09.479Z,4.37
2022-11-30T10:13:35.815Z,3.80
2022-11-30T10:16:02.234Z,3.27
2022-11-30T10:18:28.645Z,3.54
2022-11-30T10:20:55.112Z,4.04
2022-11-30T10:23:21.537Z,3.98
2022-11-30T10:25:47.879Z,3.85
2022-11-30T10:28:44.990Z,3.99
2022-11-30T10:31:00.792Z,3.98
2022-11-30T10:33:27.345Z,3.87
2022-11-30T10:35:53.783Z,3.79
2022-11-30T10:41:03.480Z,3.96
2022-11-30T10:43:29.973Z,3.88
2022-11-30T10:45:56.508Z,3.59
2022-11-30T10:48:25.966Z,3.35
2022-11-30T10:50:52.318Z,3.66
2022-11-30T10:53:18.773Z,3.75
2022-11-30T10:55:45.210Z,3.25
2022-11-30T10:58:11.667Z,3.42
2022-11-30T11:00:38.138Z,3.64
2022-11-30T11:03:04.622Z,3.69
2022-11-30T11:05:31.036Z,3.58
2022-11-30T11:08:02.730Z,3.87
2022-11-30T11:10:32.583Z,4.60
2022-11-30T11:12:58.974Z,4.36
2022-11-30T11:15:25.392Z,3.85
2022-11-30T11:17:51.853Z,4.45
2022-11-30T11:20:18.247Z,4.42
2022-11-30T11:22:44.660Z,4.19
2022-11-30T11:25:11.040Z,5.26
2022-11-30T11:27:42.838Z,6.16
2022-11-30T11:30:11.148Z,5.51
2022-11-30T11:32:37.601Z,4.16
2022-11-30T11:35:04.202Z,5.36
2022-11-30T11:37:30.685Z,4.51
2022-11-30T11:39:57.015Z,4.19
2022-11-30T11:42:23.672Z,4.23
2022-11-30T11:44:53.349Z,3.99
2022-11-30T11:47:19.791Z,4.22
2022-11-30T11:49:46.528Z,4.25
2022-11-30T11:52:13.197Z,4.09
2022-11-30T11:54:39.719Z,4.03
2022-11-30T11:57:06.119Z,4.06
2022-11-30T11:59:36.665Z,4.00
2022-11-30T12:02:03.466Z,4.13
2022-11-30T12:04:30.132Z,3.85
2022-11-30T12:06:56.735Z,3.73
2022-11-30T12:09:23.126Z,3.62
2022-11-30T12:11:49.518Z,3.38
2022-11-30T12:14:15.935Z,3.16
2022-11-30T12:16:42.292Z,3.06
2022-11-30T12:19:08.647Z,3.17
2022-11-30T12:21:35.074Z,2.99
2022-11-30T12:24:01.488Z,2.92
2022-11-30T12:26:28.062Z,2.82
2022-11-30T12:28:54.452Z,3.07
2022-11-30T12:31:20.872Z,3.61
2022-11-30T12:33:47.352Z,3.34
2022-11-30T12:36:13.727Z,3.31
2022-11-30T12:38:40.180Z,3.80
2022-11-30T12:41:06.590Z,3.52
2022-11-30T12:43:33.036Z,3.24
2022-11-30T12:45:59.495Z,3.31
2022-11-30T12:48:25.917Z,3.63
2022-11-30T12:50:52.345Z,3.56
2022-11-30T12:53:18.693Z,3.35
2022-11-30T12:55:45.073Z,3.16
2022-11-30T12:58:11.615Z,3.37
2022-11-30T13:00:37.988Z,3.48
2022-11-30T13:03:04.419Z,3.12
2022-11-30T13:05:30.821Z,3.34
2022-11-30T13:07:57.273Z,2.90
2022-11-30T13:10:23.689Z,3.18
2022-11-30T13:12:50.040Z,3.50
2022-11-30T13:15:16.450Z,3.22
2022-11-30T13:17:42.866Z,3.20
2022-11-30T13:20:09.369Z,3.17
2022-11-30T13:22:35.725Z,3.37
2022-11-30T13:25:02.088Z,3.43
2022-11-30T13:27:28.516Z,3.33
2022-11-30T13:29:58.502Z,3.30
2022-11-30T13:35:11.270Z,3.56
2022-11-30T13:37:37.668Z,3.87
2022-11-30T13:40:04.010Z,3.68
2022-11-30T13:42:30.391Z,3.55
2022-11-30T13:44:56.822Z,3.50
2022-11-30T13:47:23.248Z,3.52
2022-11-30T13:49:49.648Z,3.68
2022-11-30T13:52:24.056Z,3.52
2022-11-30T13:54:51.271Z,3.31
2022-11-30T13:57:18.634Z,3.06
2022-11-30T13:59:44.971Z,3.27
2022-11-30T14:07:46.319Z,3.55
2022-11-30T14:10:12.929Z,2.82
2022-11-30T14:12:39.388Z,3.23
2022-11-30T14:15:09.077Z,2.96
2022-11-30T14:17:35.422Z,2.68
2022-11-30T14:20:01.817Z,2.39
2022-11-30T14:22:28.152Z,2.52
2022-11-30T14:24:54.552Z,2.64
2022-11-30T14:27:20.942Z,2.94
2022-11-30T14:29:47.535Z,2.40
2022-11-30T14:32:14.345Z,2.43
2022-11-30T14:34:40.733Z,2.31
2022-11-30T14:37:07.058Z,2.50
2022-11-30T14:39:33.456Z,2.13
2022-11-30T14:41:59.818Z,2.55
2022-11-30T14:44:28.580Z,2.65
2022-11-30T14:46:55.037Z,2.84
2022-11-30T14:54:57.830Z,3.28
2022-11-30T14:57:24.396Z,3.14
2022-11-30T14:59:50.946Z,3.06
2022-11-30T15:02:17.526Z,3.23
2022-11-30T15:04:44.004Z,3.15
2022-11-30T15:07:10.444Z,3.83
2022-11-30T15:09:36.803Z,4.27
2022-11-30T15:12:03.200Z,3.32
2022-11-30T15:14:30.793Z,2.27
2022-11-30T15:16:57.346Z,2.20
2022-11-30T15:19:23.815Z,2.34
2022-11-30T15:21:50.270Z,2.87
2022-11-30T15:24:16.693Z,2.40
2022-11-30T15:26:45.937Z,1.83
2022-11-30T15:29:12.303Z,1.88
2022-11-30T15:31:38.816Z,2.10
2022-11-30T15:34:05.270Z,2.04
2022-11-30T15:36:33.933Z,2.15
2022-11-30T15:39:00.656Z,3.02
2022-11-30T15:41:27.142Z,3.21
2022-11-30T15:43:53.630Z,3.33
2022-11-30T15:46:20.183Z,2.99
2022-11-30T15:48:46.653Z,2.30
2022-11-30T15:51:13.133Z,2.22
2022-11-30T15:53:40.514Z,2.29
2022-11-30T15:56:06.892Z,2.42
2022-11-30T15:58:33.372Z,2.14
2022-11-30T16:01:02.253Z,2.31
2022-11-30T16:03:28.679Z,2.18
2022-11-30T16:05:55.047Z,2.08
2022-11-30T16:08:21.562Z,2.16
2022-11-30T16:10:47.926Z,2.35
2022-11-30T16:13:14.291Z,3.53
2022-11-30T16:15:40.728Z,4.02
2022-11-30T16:18:07.268Z,3.58
2022-11-30T16:20:42.741Z,2.21
2022-11-30T16:23:11.429Z,2.92
2022-11-30T16:25:37.898Z,3.83
2022-11-30T16:28:04.363Z,2.12
2022-11-30T16:30:30.798Z,2.34
2022-11-30T16:32:57.152Z,2.23
2022-11-30T16:35:23.546Z,2.36
2022-11-30T16:37:49.935Z,2.67
2022-11-30T16:40:16.375Z,3.64
2022-11-30T16:42:42.818Z,3.70
2022-11-30T16:45:09.345Z,2.64
2022-11-30T16:47:35.695Z,2.60
2022-11-30T16:50:02.091Z,3.13
2022-11-30T16:52:28.559Z,2.92
2022-11-30T16:54:54.930Z,2.70
2022-11-30T16:57:21.492Z,3.13
2022-11-30T16:59:48.132Z,3.83
2022-11-30T17:02:20.225Z,4.11
2022-11-30T17:04:46.898Z,3.68
2022-11-30T17:07:15.466Z,4.02
2022-11-30T17:09:41.884Z,4.78
2022-11-30T17:12:08.337Z,4.94
2022-11-30T17:14:34.759Z,5.32
2022-11-30T17:17:01.145Z,6.86
2022-11-30T17:19:27.542Z,7.28
2022-11-30T17:21:53.958Z,7.20
2022-11-30T17:24:20.394Z,6.48
2022-11-30T17:26:46.847Z,6.47
2022-11-30T17:29:13.246Z,5.45
2022-11-30T17:31:42.345Z,5.16
2022-11-30T17:34:08.776Z,4.78
2022-11-30T17:36:35.212Z,4.85
2022-11-30T17:39:01.623Z,4.64
2022-11-30T17:41:27.984Z,4.28
2022-11-30T17:43:54.517Z,4.59
2022-11-30T17:46:21.078Z,4.21
2022-11-30T17:48:47.515Z,4.68
2022-11-30T17:51:13.999Z,5.33
2022-11-30T17:53:40.491Z,5.82
2022-11-30T17:56:07.159Z,6.22
2022-11-30T17:58:36.109Z,6.10
2022-11-30T18:01:04.316Z,7.58
2022-11-30T18:03:30.725Z,11.29
2022-11-30T18:05:57.120Z,11.09
2022-11-30T18:08:23.724Z,12.27
2022-11-30T18:10:50.103Z,11.64
2022-11-30T18:13:16.427Z,13.97
2022-11-30T18:15:42.876Z,10.09
2022-11-30T18:18:09.634Z,8.26
2022-11-30T18:20:36.095Z,8.15
2022-11-30T18:23:02.457Z,8.32
2022-11-30T18:25:28.822Z,8.15
2022-11-30T18:27:55.191Z,8.30
2022-11-30T18:30:21.577Z,8.18
2022-11-30T18:32:47.908Z,8.11
2022-11-30T18:35:14.260Z,8.33
2022-11-30T18:37:40.613Z,8.68
2022-11-30T18:40:07.213Z,9.79
2022-11-30T18:42:33.606Z,8.67
2022-11-30T18:44:59.955Z,7.81
2022-11-30T18:47:26.527Z,12.01
2022-11-30T18:49:52.973Z,9.75
2022-11-30T18:52:19.363Z,8.74
2022-11-30T18:54:45.885Z,8.39
2022-11-30T18:57:14.826Z,8.45
2022-11-30T18:59:41.331Z,8.84
2022-11-30T19:02:07.740Z,8.65
2022-11-30T19:04:34.156Z,9.82
2022-11-30T19:07:00.604Z,9.51
2022-11-30T19:09:26.959Z,10.24
2022-11-30T19:11:53.510Z,16.59
2022-11-30T19:14:20.110Z,29.12
2022-11-30T19:16:46.619Z,24.64
2022-11-30T19:19:13.111Z,19.09
2022-11-30T19:21:39.562Z,16.85
2022-11-30T19:24:05.970Z,12.41
2022-11-30T19:26:33.022Z,10.37
2022-11-30T19:28:59.980Z,9.06
2022-11-30T19:31:31.277Z,9.65
2022-11-30T19:33:57.887Z,9.88
2022-11-30T19:36:24.296Z,10.62
2022-11-30T19:38:50.727Z,11.07
2022-11-30T19:41:17.177Z,10.58
2022-11-30T19:43:47.734Z,10.15
2022-11-30T19:46:19.975Z,9.30
2022-11-30T19:48:46.466Z,8.99
2022-11-30T19:51:17.626Z,9.13
2022-11-30T19:53:44.563Z,9.32
2022-11-30T19:56:12.177Z,11.90
2022-11-30T19:58:38.583Z,11.42
2022-11-30T20:01:05.127Z,11.02
2022-11-30T20:03:31.668Z,11.07
2022-11-30T20:06:08.449Z,13.84
2022-11-30T20:08:34.940Z,10.88
2022-11-30T20:11:01.488Z,10.98
2022-11-30T20:13:27.888Z,16.69
2022-11-30T20:15:54.332Z,16.75
2022-11-30T20:18:20.829Z,14.75
2022-11-30T20:20:47.230Z,12.36
2022-11-30T20:23:13.587Z,14.10
2022-11-30T20:25:40.140Z,12.99
2022-11-30T20:28:12.438Z,15.07
2022-11-30T20:30:39.191Z,10.83
2022-11-30T20:33:05.650Z,9.21
2022-11-30T20:35:32.220Z,8.63
2022-11-30T20:37:58.698Z,9.39
2022-11-30T20:40:25.169Z,10.65
2022-11-30T20:42:54.376Z,10.64
2022-11-30T20:45:20.962Z,11.93
2022-11-30T20:47:47.367Z,11.59
2022-11-30T20:50:13.778Z,13.78
2022-11-30T20:52:40.153Z,17.21
2022-11-30T20:55:06.538Z,14.57
2022-11-30T20:57:32.904Z,13.10
2022-11-30T20:59:59.273Z,11.22
2022-11-30T21:02:25.756Z,9.73
2022-11-30T21:04:52.176Z,10.73
2022-11-30T21:07:18.633Z,11.25
2022-11-30T21:09:45.314Z,11.69
2022-11-30T21:12:11.645Z,11.72
2022-11-30T21:14:38.167Z,12.09
2022-11-30T21:17:04.607Z,11.52
2022-11-30T21:19:31.042Z,11.63
2022-11-30T21:21:57.500Z,18.93
2022-11-30T21:24:23.875Z,13.88
2022-11-30T21:26:50.284Z,11.20
2022-11-30T21:29:19.502Z,10.60
2022-11-30T21:31:46.069Z,10.99
2022-11-30T21:34:12.603Z,11.57
2022-11-30T21:36:39.139Z,13.57
2022-11-30T21:39:06.804Z,28.79
2022-11-30T21:41:33.503Z,26.66
2022-11-30T21:44:02.721Z,24.14
2022-11-30T21:46:29.148Z,25.78
2022-11-30T21:48:55.652Z,28.50
2022-11-30T21:51:22.399Z,23.56
2022-11-30T21:53:48.792Z,19.43
2022-11-30T21:56:18.029Z,15.26
2022-11-30T21:58:44.456Z,12.70
2022-11-30T22:01:10.805Z,10.54
2022-11-30T22:03:37.309Z,10.62
2022-11-30T22:11:29.539Z,9.99
2022-11-30T22:13:55.932Z,9.53
2022-11-30T22:16:22.585Z,9.80
2022-11-30T22:18:49.041Z,9.81
2022-11-30T22:21:15.549Z,9.63
2022-11-30T22:23:42.004Z,9.27
2022-11-30T22:26:08.403Z,8.76
2022-11-30T22:28:34.805Z,9.05
2022-11-30T22:31:01.344Z,9.09
2022-11-30T22:33:27.885Z,9.26
2022-11-30T22:35:54.646Z,9.19
2022-11-30T22:38:21.956Z,9.01
2022-11-30T22:40:48.417Z,9.26
2022-11-30T22:43:14.951Z,8.73
2022-11-30T22:45:41.367Z,8.45
2022-11-30T22:48:07.798Z,7.92
2022-11-30T22:50:34.257Z,8.61
2022-11-30T22:53:03.289Z,8.11
2022-11-30T22:55:30.220Z,7.90
2022-11-30T22:57:56.741Z,8.13
2022-11-30T23:00:23.184Z,8.29
2022-11-30T23:02:49.710Z,8.53
2022-11-30T23:05:16.241Z,9.78
2022-11-30T23:07:45.616Z,9.82
2022-11-30T23:10:13.876Z,9.89
2022-11-30T23:12:58.925Z,8.85
2022-11-30T23:15:26.276Z,7.55
2022-11-30T23:17:52.900Z,7.44
2022-11-30T23:20:19.330Z,7.80
2022-11-30T23:22:50.804Z,7.72
2022-11-30T23:25:17.196Z,7.80
2022-11-30T23:27:52.045Z,7.85
2022-11-30T23:30:18.516Z,7.95
2022-11-30T23:32:47.311Z,8.01
2022-11-30T23:35:15.712Z,8.16
2022-11-30T23:37:42.162Z,8.05
2022-11-30T23:40:08.638Z,8.10
2022-11-30T23:42:35.078Z,8.01
2022-11-30T23:45:01.508Z,8.27
2022-11-30T23:47:27.890Z,8.57
2022-11-30T23:49:54.380Z,8.30
2022-11-30T23:52:20.752Z,8.72
2022-11-30T23:54:49.031Z,8.33
2022-11-30T23:57:15.407Z,7.95
2022-11-30T23:59:41.765Z,8.49
